sensor_id;sensor_type;location;lat;lon;timestamp;pressure;altitude;pressure_sealevel;temperature;humidity
7109;BME280;29079;41.930;25.558;2023-04-23T00:01:42;99658.97;;;10.48;100.00
7109;BME280;29079;41.930;25.558;2023-04-23T00:04:17;99653.56;;;10.59;100.00
7109;BME280;29079;41.930;25.558;2023-04-23T00:06:52;99659.97;;;10.47;100.00
7109;BME280;29079;41.930;25.558;2023-04-23T00:09:26;99653.47;;;10.71;100.00
7109;BME280;29079;41.930;25.558;2023-04-23T00:12:03;99658.19;;;10.57;100.00
7109;BME280;29079;41.930;25.558;2023-04-23T00:14:38;99661.19;;;10.74;100.00
7109;BME280;29079;41.930;25.558;2023-04-23T00:17:12;99662.94;;;10.54;100.00
7109;BME280;29079;41.930;25.558;2023-04-23T00:19:47;99665.56;;;10.75;100.00
7109;BME280;29079;41.930;25.558;2023-04-23T00:22:22;99667.31;;;10.55;100.00
7109;BME280;29079;41.930;25.558;2023-04-23T00:24:55;99667.84;;;10.49;100.00
7109;BME280;29079;41.930;25.558;2023-04-23T00:27:29;99669.03;;;10.66;100.00
7109;BME280;29079;41.930;25.558;2023-04-23T00:30:02;99672.72;;;10.43;100.00
7109;BME280;29079;41.930;25.558;2023-04-23T00:32:35;99664.38;;;10.37;100.00
7109;BME280;29079;41.930;25.558;2023-04-23T00:35:09;99662.06;;;10.32;100.00
7109;BME280;29079;41.930;25.558;2023-04-23T00:37:42;99660.97;;;10.14;100.00
7109;BME280;29079;41.930;25.558;2023-04-23T00:40:16;99663.91;;;10.53;100.00
7109;BME280;29079;41.930;25.558;2023-04-23T00:42:51;99658.84;;;10.28;100.00
7109;BME280;29079;41.930;25.558;2023-04-23T00:45:24;99663.00;;;10.21;100.00
7109;BME280;29079;41.930;25.558;2023-04-23T00:47:57;99664.28;;;10.38;100.00
7109;BME280;29079;41.930;25.558;2023-04-23T00:50:32;99662.09;;;10.11;100.00
7109;BME280;29079;41.930;25.558;2023-04-23T00:53:05;99667.56;;;10.09;100.00
7109;BME280;29079;41.930;25.558;2023-04-23T00:55:39;99666.69;;;10.41;100.00
7109;BME280;29079;41.930;25.558;2023-04-23T00:58:12;99666.69;;;11.13;100.00
7109;BME280;29079;41.930;25.558;2023-04-23T01:00:45;99669.25;;;11.34;100.00
7109;BME280;29079;41.930;25.558;2023-04-23T01:03:19;99675.03;;;10.58;100.00
7109;BME280;29079;41.930;25.558;2023-04-23T01:05:54;99674.13;;;10.26;100.00
7109;BME280;29079;41.930;25.558;2023-04-23T01:08:28;99673.66;;;10.63;100.00
7109;BME280;29079;41.930;25.558;2023-04-23T01:11:03;99675.78;;;10.39;100.00
7109;BME280;29079;41.930;25.558;2023-04-23T01:13:37;99676.97;;;10.14;100.00
7109;BME280;29079;41.930;25.558;2023-04-23T01:16:11;99673.25;;;10.05;100.00
7109;BME280;29079;41.930;25.558;2023-04-23T01:18:44;99673.91;;;9.97;100.00
7109;BME280;29079;41.930;25.558;2023-04-23T01:21:19;99674.66;;;10.20;100.00
7109;BME280;29079;41.930;25.558;2023-04-23T01:23:53;99672.50;;;10.14;100.00
7109;BME280;29079;41.930;25.558;2023-04-23T01:26:27;99674.38;;;10.02;100.00
7109;BME280;29079;41.930;25.558;2023-04-23T01:29:00;99670.28;;;10.19;100.00
7109;BME280;29079;41.930;25.558;2023-04-23T01:31:33;99669.81;;;10.87;100.00
7109;BME280;29079;41.930;25.558;2023-04-23T01:34:06;99667.38;;;11.15;100.00
7109;BME280;29079;41.930;25.558;2023-04-23T01:36:40;99672.00;;;10.41;100.00
7109;BME280;29079;41.930;25.558;2023-04-23T01:39:14;99673.13;;;9.85;100.00
7109;BME280;29079;41.930;25.558;2023-04-23T01:41:48;99671.03;;;9.68;100.00
7109;BME280;29079;41.930;25.558;2023-04-23T01:44:22;99672.03;;;10.09;100.00
7109;BME280;29079;41.930;25.558;2023-04-23T01:46:55;99673.00;;;9.87;100.00
7109;BME280;29079;41.930;25.558;2023-04-23T01:49:28;99669.69;;;9.94;100.00
7109;BME280;29079;41.930;25.558;2023-04-23T01:52:01;99684.78;;;9.73;100.00
7109;BME280;29079;41.930;25.558;2023-04-23T01:54:36;99682.34;;;9.81;100.00
7109;BME280;29079;41.930;25.558;2023-04-23T01:57:10;99682.78;;;9.98;100.00
7109;BME280;29079;41.930;25.558;2023-04-23T01:59:43;99688.31;;;9.73;100.00
7109;BME280;29079;41.930;25.558;2023-04-23T02:02:16;99688.56;;;9.82;100.00
7109;BME280;29079;41.930;25.558;2023-04-23T02:04:50;99682.22;;;9.83;100.00
7109;BME280;29079;41.930;25.558;2023-04-23T02:07:23;99687.16;;;9.87;100.00
7109;BME280;29079;41.930;25.558;2023-04-23T02:09:58;99697.41;;;9.71;100.00
7109;BME280;29079;41.930;25.558;2023-04-23T02:12:36;99692.44;;;9.78;100.00
7109;BME280;29079;41.930;25.558;2023-04-23T02:15:10;99700.09;;;10.24;100.00
7109;BME280;29079;41.930;25.558;2023-04-23T02:17:43;99689.06;;;10.18;100.00
7109;BME280;29079;41.930;25.558;2023-04-23T02:20:17;99692.63;;;9.86;100.00
7109;BME280;29079;41.930;25.558;2023-04-23T02:22:50;99692.31;;;9.79;100.00
7109;BME280;29079;41.930;25.558;2023-04-23T02:25:25;99698.91;;;10.17;100.00
7109;BME280;29079;41.930;25.558;2023-04-23T02:27:58;99694.31;;;10.40;100.00
7109;BME280;29079;41.930;25.558;2023-04-23T02:30:33;99697.91;;;9.76;99.49
7109;BME280;29079;41.930;25.558;2023-04-23T02:33:06;99707.13;;;9.72;100.00
7109;BME280;29079;41.930;25.558;2023-04-23T02:35:39;99698.59;;;9.78;99.03
7109;BME280;29079;41.930;25.558;2023-04-23T02:38:12;99700.25;;;9.58;100.00
7109;BME280;29079;41.930;25.558;2023-04-23T02:40:47;99698.97;;;9.41;100.00
7109;BME280;29079;41.930;25.558;2023-04-23T02:43:20;99700.44;;;9.34;100.00
7109;BME280;29079;41.930;25.558;2023-04-23T02:45:53;99701.03;;;9.37;100.00
7109;BME280;29079;41.930;25.558;2023-04-23T02:48:26;99699.56;;;9.45;100.00
7109;BME280;29079;41.930;25.558;2023-04-23T02:51:00;99704.47;;;9.61;100.00
7109;BME280;29079;41.930;25.558;2023-04-23T02:53:33;99696.88;;;9.45;100.00
7109;BME280;29079;41.930;25.558;2023-04-23T02:56:08;99703.09;;;9.34;100.00
7109;BME280;29079;41.930;25.558;2023-04-23T02:58:41;99702.47;;;9.41;100.00
7109;BME280;29079;41.930;25.558;2023-04-23T03:01:16;99706.97;;;9.41;99.99
7109;BME280;29079;41.930;25.558;2023-04-23T03:03:49;99700.78;;;9.40;100.00
7109;BME280;29079;41.930;25.558;2023-04-23T03:06:22;99700.50;;;9.55;100.00
7109;BME280;29079;41.930;25.558;2023-04-23T03:08:55;99708.06;;;9.71;100.00
7109;BME280;29079;41.930;25.558;2023-04-23T03:11:30;99702.09;;;9.46;100.00
7109;BME280;29079;41.930;25.558;2023-04-23T03:14:04;99703.94;;;9.34;100.00
7109;BME280;29079;41.930;25.558;2023-04-23T03:16:38;99713.75;;;9.34;100.00
7109;BME280;29079;41.930;25.558;2023-04-23T03:19:11;99715.16;;;9.49;100.00
7109;BME280;29079;41.930;25.558;2023-04-23T03:21:44;99718.19;;;9.56;100.00
7109;BME280;29079;41.930;25.558;2023-04-23T03:24:17;99714.34;;;9.37;100.00
7109;BME280;29079;41.930;25.558;2023-04-23T03:26:51;99715.22;;;9.27;100.00
7109;BME280;29079;41.930;25.558;2023-04-23T03:29:25;99718.72;;;9.38;100.00
7109;BME280;29079;41.930;25.558;2023-04-23T03:31:58;99721.44;;;9.59;100.00
7109;BME280;29079;41.930;25.558;2023-04-23T03:34:31;99721.69;;;9.56;100.00
7109;BME280;29079;41.930;25.558;2023-04-23T03:37:04;99716.72;;;9.63;100.00
7109;BME280;29079;41.930;25.558;2023-04-23T03:39:37;99716.34;;;9.56;100.00
7109;BME280;29079;41.930;25.558;2023-04-23T03:42:11;99720.09;;;9.54;100.00
7109;BME280;29079;41.930;25.558;2023-04-23T03:44:44;99718.06;;;9.46;100.00
7109;BME280;29079;41.930;25.558;2023-04-23T03:47:18;99725.13;;;9.24;100.00
7109;BME280;29079;41.930;25.558;2023-04-23T03:49:51;99719.56;;;9.16;100.00
7109;BME280;29079;41.930;25.558;2023-04-23T03:52:24;99729.25;;;9.17;100.00
7109;BME280;29079;41.930;25.558;2023-04-23T03:54:57;99729.88;;;9.10;100.00
7109;BME280;29079;41.930;25.558;2023-04-23T03:57:32;99721.88;;;8.87;100.00
7109;BME280;29079;41.930;25.558;2023-04-23T04:00:05;99723.91;;;9.29;100.00
7109;BME280;29079;41.930;25.558;2023-04-23T04:02:42;99724.19;;;9.14;100.00
7109;BME280;29079;41.930;25.558;2023-04-23T04:05:15;99730.13;;;9.06;100.00
7109;BME280;29079;41.930;25.558;2023-04-23T04:07:48;99733.63;;;9.07;100.00
7109;BME280;29079;41.930;25.558;2023-04-23T04:10:22;99736.28;;;9.18;100.00
7109;BME280;29079;41.930;25.558;2023-04-23T04:12:57;99741.72;;;8.94;100.00
7109;BME280;29079;41.930;25.558;2023-04-23T04:15:31;99745.34;;;9.16;100.00
7109;BME280;29079;41.930;25.558;2023-04-23T04:18:05;99754.31;;;9.15;100.00
7109;BME280;29079;41.930;25.558;2023-04-23T04:20:38;99756.44;;;9.66;100.00
7109;BME280;29079;41.930;25.558;2023-04-23T04:23:14;99759.88;;;9.34;100.00
7109;BME280;29079;41.930;25.558;2023-04-23T04:25:47;99759.75;;;9.24;100.00
7109;BME280;29079;41.930;25.558;2023-04-23T04:28:23;99769.56;;;9.24;100.00
7109;BME280;29079;41.930;25.558;2023-04-23T04:30:56;99766.66;;;9.27;100.00
7109;BME280;29079;41.930;25.558;2023-04-23T04:33:31;99758.53;;;9.40;100.00
7109;BME280;29079;41.930;25.558;2023-04-23T04:36:06;99767.97;;;9.44;100.00
7109;BME280;29079;41.930;25.558;2023-04-23T04:38:40;99769.66;;;9.45;100.00
7109;BME280;29079;41.930;25.558;2023-04-23T04:41:14;99771.63;;;9.32;100.00
7109;BME280;29079;41.930;25.558;2023-04-23T04:43:50;99779.84;;;9.29;100.00
7109;BME280;29079;41.930;25.558;2023-04-23T04:46:23;99774.28;;;9.43;100.00
7109;BME280;29079;41.930;25.558;2023-04-23T04:49:00;99778.59;;;9.55;100.00
7109;BME280;29079;41.930;25.558;2023-04-23T04:51:33;99779.22;;;9.48;98.99
7109;BME280;29079;41.930;25.558;2023-04-23T04:54:06;99782.13;;;9.22;100.00
7109;BME280;29079;41.930;25.558;2023-04-23T04:56:39;99792.03;;;9.54;100.00
7109;BME280;29079;41.930;25.558;2023-04-23T04:59:14;99788.38;;;9.78;100.00
7109;BME280;29079;41.930;25.558;2023-04-23T05:01:47;99787.66;;;9.75;98.65
7109;BME280;29079;41.930;25.558;2023-04-23T05:04:20;99785.19;;;10.27;100.00
7109;BME280;29079;41.930;25.558;2023-04-23T05:06:53;99786.13;;;10.38;97.74
7109;BME280;29079;41.930;25.558;2023-04-23T05:09:27;99783.22;;;9.97;96.35
7109;BME280;29079;41.930;25.558;2023-04-23T05:12:01;99789.09;;;10.12;96.12
7109;BME280;29079;41.930;25.558;2023-04-23T05:14:35;99785.09;;;10.18;95.44
7109;BME280;29079;41.930;25.558;2023-04-23T05:17:09;99788.88;;;10.15;94.77
7109;BME280;29079;41.930;25.558;2023-04-23T05:19:42;99795.44;;;10.32;96.25
7109;BME280;29079;41.930;25.558;2023-04-23T05:22:15;99792.72;;;10.55;93.92
7109;BME280;29079;41.930;25.558;2023-04-23T05:24:49;99792.19;;;10.61;94.00
7109;BME280;29079;41.930;25.558;2023-04-23T05:27:22;99793.13;;;10.50;94.33
7109;BME280;29079;41.930;25.558;2023-04-23T05:29:57;99798.97;;;10.65;92.44
7109;BME280;29079;41.930;25.558;2023-04-23T05:32:30;99791.66;;;10.67;91.12
7109;BME280;29079;41.930;25.558;2023-04-23T05:35:04;99799.69;;;10.46;91.52
7109;BME280;29079;41.930;25.558;2023-04-23T05:37:38;99795.69;;;10.83;91.74
7109;BME280;29079;41.930;25.558;2023-04-23T05:40:11;99800.47;;;10.79;90.37
7109;BME280;29079;41.930;25.558;2023-04-23T05:42:44;99799.28;;;10.93;90.35
7109;BME280;29079;41.930;25.558;2023-04-23T05:45:19;99806.19;;;10.95;91.18
7109;BME280;29079;41.930;25.558;2023-04-23T05:47:52;99803.97;;;10.79;90.64
7109;BME280;29079;41.930;25.558;2023-04-23T05:50:25;99798.88;;;10.97;91.40
7109;BME280;29079;41.930;25.558;2023-04-23T05:52:59;99803.81;;;11.02;90.16
7109;BME280;29079;41.930;25.558;2023-04-23T05:55:32;99804.03;;;11.51;90.03
7109;BME280;29079;41.930;25.558;2023-04-23T05:58:05;99803.25;;;11.29;87.61
7109;BME280;29079;41.930;25.558;2023-04-23T06:00:40;99801.38;;;11.20;88.77
7109;BME280;29079;41.930;25.558;2023-04-23T06:03:13;99801.28;;;11.72;88.52
7109;BME280;29079;41.930;25.558;2023-04-23T06:05:47;99803.44;;;11.88;87.51
7109;BME280;29079;41.930;25.558;2023-04-23T06:08:21;99797.91;;;11.80;85.74
7109;BME280;29079;41.930;25.558;2023-04-23T06:10:55;99802.34;;;12.00;85.65
7109;BME280;29079;41.930;25.558;2023-04-23T06:13:29;99794.34;;;12.20;89.35
7109;BME280;29079;41.930;25.558;2023-04-23T06:16:03;99802.75;;;11.96;86.70
7109;BME280;29079;41.930;25.558;2023-04-23T06:18:36;99797.16;;;12.09;83.03
7109;BME280;29079;41.930;25.558;2023-04-23T06:21:11;99795.19;;;12.01;84.38
7109;BME280;29079;41.930;25.558;2023-04-23T06:23:45;99812.41;;;11.77;83.29
7109;BME280;29079;41.930;25.558;2023-04-23T06:26:18;99803.34;;;12.19;86.44
7109;BME280;29079;41.930;25.558;2023-04-23T06:28:51;99802.06;;;12.43;84.77
7109;BME280;29079;41.930;25.558;2023-04-23T06:31:26;99801.78;;;12.65;86.45
7109;BME280;29079;41.930;25.558;2023-04-23T06:33:59;99807.44;;;12.33;81.71
7109;BME280;29079;41.930;25.558;2023-04-23T06:36:32;99803.47;;;12.57;83.14
7109;BME280;29079;41.930;25.558;2023-04-23T06:39:06;99814.63;;;12.52;78.24
7109;BME280;29079;41.930;25.558;2023-04-23T06:41:39;99818.13;;;12.13;78.29
7109;BME280;29079;41.930;25.558;2023-04-23T06:44:12;99812.91;;;12.12;80.20
7109;BME280;29079;41.930;25.558;2023-04-23T06:46:46;99813.34;;;12.36;80.01
7109;BME280;29079;41.930;25.558;2023-04-23T06:49:20;99817.00;;;12.06;77.39
7109;BME280;29079;41.930;25.558;2023-04-23T06:51:53;99824.63;;;12.21;76.87
7109;BME280;29079;41.930;25.558;2023-04-23T06:54:29;99820.38;;;12.57;75.95
7109;BME280;29079;41.930;25.558;2023-04-23T06:57:02;99810.19;;;13.00;81.41
7109;BME280;29079;41.930;25.558;2023-04-23T06:59:35;99811.34;;;13.25;82.08
7109;BME280;29079;41.930;25.558;2023-04-23T07:02:09;99816.72;;;12.39;76.70
7109;BME280;29079;41.930;25.558;2023-04-23T07:04:43;99815.03;;;12.57;80.50
7109;BME280;29079;41.930;25.558;2023-04-23T07:07:17;99812.50;;;12.56;75.98
7109;BME280;29079;41.930;25.558;2023-04-23T07:09:51;99811.59;;;12.94;78.94
7109;BME280;29079;41.930;25.558;2023-04-23T07:12:25;99810.53;;;13.24;74.68
7109;BME280;29079;41.930;25.558;2023-04-23T07:14:58;99809.97;;;12.74;75.81
7109;BME280;29079;41.930;25.558;2023-04-23T07:17:33;99813.47;;;12.84;76.50
7109;BME280;29079;41.930;25.558;2023-04-23T07:20:07;99811.31;;;12.87;74.05
7109;BME280;29079;41.930;25.558;2023-04-23T07:22:41;99812.13;;;13.07;75.08
7109;BME280;29079;41.930;25.558;2023-04-23T07:25:14;99815.78;;;13.06;71.34
7109;BME280;29079;41.930;25.558;2023-04-23T07:27:47;99809.75;;;13.04;74.76
7109;BME280;29079;41.930;25.558;2023-04-23T07:30:21;99817.50;;;12.98;72.45
7109;BME280;29079;41.930;25.558;2023-04-23T07:32:56;99825.06;;;13.12;74.29
7109;BME280;29079;41.930;25.558;2023-04-23T07:35:29;99821.66;;;13.20;73.79
7109;BME280;29079;41.930;25.558;2023-04-23T07:38:02;99812.75;;;13.29;74.50
7109;BME280;29079;41.930;25.558;2023-04-23T07:40:35;99817.88;;;13.60;73.74
7109;BME280;29079;41.930;25.558;2023-04-23T07:43:08;99813.25;;;13.80;73.84
7109;BME280;29079;41.930;25.558;2023-04-23T07:45:41;99823.53;;;13.85;71.00
7109;BME280;29079;41.930;25.558;2023-04-23T07:48:16;99820.28;;;13.53;71.23
7109;BME280;29079;41.930;25.558;2023-04-23T07:50:49;99821.66;;;13.67;68.38
7109;BME280;29079;41.930;25.558;2023-04-23T07:53:23;99818.94;;;13.39;65.70
7109;BME280;29079;41.930;25.558;2023-04-23T07:55:56;99817.78;;;13.80;66.47
7109;BME280;29079;41.930;25.558;2023-04-23T07:58:29;99820.84;;;14.03;66.79
7109;BME280;29079;41.930;25.558;2023-04-23T08:01:03;99812.19;;;13.91;66.67
7109;BME280;29079;41.930;25.558;2023-04-23T08:03:38;99822.53;;;13.86;65.62
7109;BME280;29079;41.930;25.558;2023-04-23T08:06:11;99820.38;;;13.89;68.27
7109;BME280;29079;41.930;25.558;2023-04-23T08:08:45;99815.28;;;13.96;70.45
7109;BME280;29079;41.930;25.558;2023-04-23T08:11:18;99818.06;;;14.04;66.54
7109;BME280;29079;41.930;25.558;2023-04-23T08:13:52;99813.06;;;14.09;67.79
7109;BME280;29079;41.930;25.558;2023-04-23T08:16:26;99810.28;;;14.37;71.22
7109;BME280;29079;41.930;25.558;2023-04-23T08:19:01;99802.88;;;14.31;69.26
7109;BME280;29079;41.930;25.558;2023-04-23T08:21:37;99805.56;;;14.31;66.08
7109;BME280;29079;41.930;25.558;2023-04-23T08:24:10;99804.88;;;14.29;65.68
7109;BME280;29079;41.930;25.558;2023-04-23T08:26:43;99800.47;;;14.46;66.61
7109;BME280;29079;41.930;25.558;2023-04-23T08:29:17;99807.38;;;14.49;66.90
7109;BME280;29079;41.930;25.558;2023-04-23T08:31:50;99797.09;;;14.62;66.00
7109;BME280;29079;41.930;25.558;2023-04-23T08:34:24;99801.25;;;14.74;65.58
7109;BME280;29079;41.930;25.558;2023-04-23T08:36:58;99805.00;;;14.63;66.08
7109;BME280;29079;41.930;25.558;2023-04-23T08:39:31;99800.53;;;14.72;69.99
7109;BME280;29079;41.930;25.558;2023-04-23T08:42:07;99799.50;;;14.91;68.67
7109;BME280;29079;41.930;25.558;2023-04-23T08:44:43;99793.28;;;14.91;68.63
7109;BME280;29079;41.930;25.558;2023-04-23T08:47:18;99805.41;;;14.69;65.41
7109;BME280;29079;41.930;25.558;2023-04-23T08:49:57;99787.41;;;14.87;69.31
7109;BME280;29079;41.930;25.558;2023-04-23T08:52:32;99787.09;;;14.98;68.94
7109;BME280;29079;41.930;25.558;2023-04-23T08:55:06;99786.84;;;15.10;68.67
7109;BME280;29079;41.930;25.558;2023-04-23T08:57:41;99784.56;;;14.89;67.10
7109;BME280;29079;41.930;25.558;2023-04-23T09:00:15;99784.56;;;14.89;64.34
7109;BME280;29079;41.930;25.558;2023-04-23T09:02:49;99789.59;;;14.92;64.13
7109;BME280;29079;41.930;25.558;2023-04-23T09:05:23;99784.41;;;14.98;67.94
7109;BME280;29079;41.930;25.558;2023-04-23T09:07:58;99783.38;;;14.91;63.60
7109;BME280;29079;41.930;25.558;2023-04-23T09:10:31;99779.28;;;15.05;64.70
7109;BME280;29079;41.930;25.558;2023-04-23T09:13:08;99781.38;;;15.20;65.65
7109;BME280;29079;41.930;25.558;2023-04-23T09:15:41;99773.50;;;15.26;66.07
7109;BME280;29079;41.930;25.558;2023-04-23T09:18:14;99772.38;;;15.37;64.07
7109;BME280;29079;41.930;25.558;2023-04-23T09:20:50;99771.25;;;15.56;65.39
7109;BME280;29079;41.930;25.558;2023-04-23T09:23:23;99771.84;;;15.76;64.26
7109;BME280;29079;41.930;25.558;2023-04-23T09:25:56;99775.44;;;15.50;59.26
7109;BME280;29079;41.930;25.558;2023-04-23T09:28:33;99767.38;;;15.16;62.21
7109;BME280;29079;41.930;25.558;2023-04-23T09:31:06;99762.53;;;15.20;58.70
7109;BME280;29079;41.930;25.558;2023-04-23T09:33:39;99758.81;;;15.47;62.44
7109;BME280;29079;41.930;25.558;2023-04-23T09:36:15;99759.31;;;15.50;61.38
7109;BME280;29079;41.930;25.558;2023-04-23T09:38:48;99752.25;;;15.49;59.33
7109;BME280;29079;41.930;25.558;2023-04-23T09:41:22;99755.03;;;15.74;58.65
7109;BME280;29079;41.930;25.558;2023-04-23T09:43:56;99756.13;;;15.55;58.39
7109;BME280;29079;41.930;25.558;2023-04-23T09:46:33;99749.88;;;15.46;60.76
7109;BME280;29079;41.930;25.558;2023-04-23T09:49:06;99752.75;;;15.53;61.47
7109;BME280;29079;41.930;25.558;2023-04-23T09:51:43;99749.50;;;15.33;63.37
7109;BME280;29079;41.930;25.558;2023-04-23T09:54:18;99750.25;;;15.52;62.12
7109;BME280;29079;41.930;25.558;2023-04-23T09:56:52;99742.22;;;15.68;60.31
7109;BME280;29079;41.930;25.558;2023-04-23T09:59:27;99741.25;;;15.77;57.20
7109;BME280;29079;41.930;25.558;2023-04-23T10:02:05;99740.63;;;16.00;58.19
7109;BME280;29079;41.930;25.558;2023-04-23T10:04:38;99734.41;;;16.16;57.63
7109;BME280;29079;41.930;25.558;2023-04-23T10:07:14;99733.06;;;16.36;59.13
7109;BME280;29079;41.930;25.558;2023-04-23T10:09:51;99724.81;;;16.22;56.72
7109;BME280;29079;41.930;25.558;2023-04-23T10:12:25;99732.41;;;16.18;61.10
7109;BME280;29079;41.930;25.558;2023-04-23T10:15:18;99728.34;;;16.30;56.76
7109;BME280;29079;41.930;25.558;2023-04-23T10:17:52;99722.13;;;16.30;55.71
7109;BME280;29079;41.930;25.558;2023-04-23T10:20:26;99719.78;;;16.18;59.85
7109;BME280;29079;41.930;25.558;2023-04-23T10:23:00;99712.03;;;15.99;58.32
7109;BME280;29079;41.930;25.558;2023-04-23T10:25:34;99709.84;;;16.02;59.96
7109;BME280;29079;41.930;25.558;2023-04-23T10:28:08;99701.41;;;16.63;56.88
7109;BME280;29079;41.930;25.558;2023-04-23T10:30:43;99696.50;;;16.67;56.89
7109;BME280;29079;41.930;25.558;2023-04-23T10:33:16;99702.03;;;16.90;55.99
7109;BME280;29079;41.930;25.558;2023-04-23T10:36:03;99698.97;;;16.93;55.95
7109;BME280;29079;41.930;25.558;2023-04-23T10:38:37;99697.66;;;16.89;55.83
7109;BME280;29079;41.930;25.558;2023-04-23T10:41:30;99695.31;;;16.69;58.37
7109;BME280;29079;41.930;25.558;2023-04-23T10:44:08;99689.09;;;16.69;53.61
7109;BME280;29079;41.930;25.558;2023-04-23T10:46:52;99685.84;;;16.90;56.61
7109;BME280;29079;41.930;25.558;2023-04-23T10:49:29;99679.44;;;16.91;55.37
7109;BME280;29079;41.930;25.558;2023-04-23T10:52:06;99675.00;;;16.17;52.28
7109;BME280;29079;41.930;25.558;2023-04-23T10:54:56;99677.31;;;16.53;56.64
7109;BME280;29079;41.930;25.558;2023-04-23T10:57:31;99670.69;;;16.81;56.07
7109;BME280;29079;41.930;25.558;2023-04-23T11:00:24;99676.97;;;16.65;55.57
7109;BME280;29079;41.930;25.558;2023-04-23T11:02:57;99677.31;;;16.53;51.79
7109;BME280;29079;41.930;25.558;2023-04-23T11:05:33;99669.19;;;16.70;57.95
7109;BME280;29079;41.930;25.558;2023-04-23T11:08:07;99671.22;;;16.76;55.08
7109;BME280;29079;41.930;25.558;2023-04-23T11:10:53;99670.78;;;16.48;57.95
7109;BME280;29079;41.930;25.558;2023-04-23T11:13:28;99656.00;;;16.35;60.30
7109;BME280;29079;41.930;25.558;2023-04-23T11:16:14;99664.22;;;16.50;53.86
7109;BME280;29079;41.930;25.558;2023-04-23T11:18:55;99660.38;;;16.20;56.32
7109;BME280;29079;41.930;25.558;2023-04-23T11:24:20;99655.84;;;16.12;55.16
7109;BME280;29079;41.930;25.558;2023-04-23T11:26:55;99656.00;;;16.35;54.87
7109;BME280;29079;41.930;25.558;2023-04-23T11:29:29;99647.34;;;16.57;52.82
7109;BME280;29079;41.930;25.558;2023-04-23T11:32:01;99648.44;;;16.87;53.08
7109;BME280;29079;41.930;25.558;2023-04-23T11:34:36;99640.97;;;17.05;54.40
7109;BME280;29079;41.930;25.558;2023-04-23T11:37:11;99650.59;;;17.08;55.38
7109;BME280;29079;41.930;25.558;2023-04-23T11:39:44;99644.31;;;17.47;52.72
7109;BME280;29079;41.930;25.558;2023-04-23T11:42:19;99647.16;;;17.22;49.35
7109;BME280;29079;41.930;25.558;2023-04-23T11:44:52;99644.84;;;17.11;49.24
7109;BME280;29079;41.930;25.558;2023-04-23T11:47:26;99639.81;;;17.00;47.51
7109;BME280;29079;41.930;25.558;2023-04-23T11:49:59;99632.97;;;17.20;46.60
7109;BME280;29079;41.930;25.558;2023-04-23T11:52:33;99631.19;;;17.13;46.52
7109;BME280;29079;41.930;25.558;2023-04-23T11:55:08;99630.25;;;17.29;47.71
7109;BME280;29079;41.930;25.558;2023-04-23T11:57:43;99620.81;;;17.56;61.92
7109;BME280;29079;41.930;25.558;2023-04-23T12:00:18;99619.75;;;17.57;49.60
7109;BME280;29079;41.930;25.558;2023-04-23T12:02:52;99611.38;;;17.29;47.10
7109;BME280;29079;41.930;25.558;2023-04-23T12:05:26;99618.38;;;17.38;50.13
7109;BME280;29079;41.930;25.558;2023-04-23T12:08:06;99627.03;;;17.56;49.06
7109;BME280;29079;41.930;25.558;2023-04-23T12:10:44;99616.16;;;17.18;50.45
7109;BME280;29079;41.930;25.558;2023-04-23T12:13:20;99615.03;;;17.36;50.25
7109;BME280;29079;41.930;25.558;2023-04-23T12:15:54;99613.78;;;17.47;51.97
7109;BME280;29079;41.930;25.558;2023-04-23T12:18:29;99611.66;;;17.34;48.69
7109;BME280;29079;41.930;25.558;2023-04-23T12:21:05;99605.19;;;17.20;58.89
7109;BME280;29079;41.930;25.558;2023-04-23T12:23:39;99598.59;;;17.22;48.96
7109;BME280;29079;41.930;25.558;2023-04-23T12:26:13;99596.50;;;17.01;53.37
7109;BME280;29079;41.930;25.558;2023-04-23T12:28:50;99595.81;;;17.08;50.77
7109;BME280;29079;41.930;25.558;2023-04-23T12:31:23;99601.47;;;17.67;57.33
7109;BME280;29079;41.930;25.558;2023-04-23T12:34:01;99590.09;;;17.57;48.07
7109;BME280;29079;41.930;25.558;2023-04-23T12:36:34;99592.97;;;17.55;47.16
7109;BME280;29079;41.930;25.558;2023-04-23T12:39:24;99583.47;;;17.13;50.31
7109;BME280;29079;41.930;25.558;2023-04-23T12:41:58;99579.66;;;17.31;62.17
7109;BME280;29079;41.930;25.558;2023-04-23T12:44:36;99574.47;;;18.58;53.44
7109;BME280;29079;41.930;25.558;2023-04-23T12:47:10;99578.22;;;17.66;45.30
7109;BME280;29079;41.930;25.558;2023-04-23T12:49:43;99575.38;;;18.66;60.53
7109;BME280;29079;41.930;25.558;2023-04-23T12:52:16;99576.72;;;18.55;58.08
7109;BME280;29079;41.930;25.558;2023-04-23T12:54:49;99565.59;;;18.94;66.63
7109;BME280;29079;41.930;25.558;2023-04-23T12:57:27;99566.59;;;19.08;51.24
7109;BME280;29079;41.930;25.558;2023-04-23T13:00:01;99566.50;;;18.72;67.75
7109;BME280;29079;41.930;25.558;2023-04-23T13:02:35;99560.78;;;18.45;44.41
7109;BME280;29079;41.930;25.558;2023-04-23T13:05:09;99560.28;;;17.97;45.76
7109;BME280;29079;41.930;25.558;2023-04-23T13:07:42;99551.28;;;19.01;51.40
7109;BME280;29079;41.930;25.558;2023-04-23T13:10:15;99553.47;;;18.90;52.96
7109;BME280;29079;41.930;25.558;2023-04-23T13:12:49;99553.75;;;18.95;56.95
7109;BME280;29079;41.930;25.558;2023-04-23T13:15:24;99562.44;;;18.31;46.82
7109;BME280;29079;41.930;25.558;2023-04-23T13:17:58;99548.09;;;18.60;58.43
7109;BME280;29079;41.930;25.558;2023-04-23T13:20:31;99545.66;;;18.66;59.90
7109;BME280;29079;41.930;25.558;2023-04-23T13:23:04;99543.72;;;18.44;53.27
7109;BME280;29079;41.930;25.558;2023-04-23T13:25:39;99537.28;;;18.45;61.10
7109;BME280;29079;41.930;25.558;2023-04-23T13:28:12;99535.06;;;18.49;56.26
7109;BME280;29079;41.930;25.558;2023-04-23T13:30:47;99530.84;;;18.47;60.53
7109;BME280;29079;41.930;25.558;2023-04-23T13:33:20;99531.69;;;18.47;59.32
7109;BME280;29079;41.930;25.558;2023-04-23T13:35:53;99528.44;;;18.37;53.25
7109;BME280;29079;41.930;25.558;2023-04-23T13:38:27;99516.72;;;18.00;44.67
7109;BME280;29079;41.930;25.558;2023-04-23T13:41:00;99517.28;;;17.95;45.25